Time;durP1;ratioP1;P1;durP2;ratioP2;P2;SDS_P1;SDS_P2;PMS_P1;PMS_P2;Temp;Humidity;BMP_temperature;BMP_pressure;BME280_temperature;BME280_humidity;BME280_pressure;Samples;Min_cycle;Max_cycle;Signal;HPM_P1;HPM_P2
2023/05/16 00:00:14;;;;;;;;;;;;;;;22.59;56.27;98847.34;7303671;19;129229;-40
2023/05/16 00:02:40;;;;;;;;;;;;;;;22.59;56.50;98842.91;7308944;19;130561;-39
2023/05/16 00:05:09;;;;;;;;;;;;;;;22.59;56.76;98852.56;7305533;19;129222;-40
2023/05/16 00:07:35;;;;;;;;;;;;;;;22.59;56.81;98849.97;7310094;19;129000;-36
2023/05/16 00:10:00;;;;;;;;;;;;;;;22.59;56.28;98844.72;7307407;19;132085;-40
2023/05/16 00:12:27;;;;;;;;;;;;;;;22.58;57.01;98843.06;7308245;19;130384;-40
2023/05/16 00:14:52;;;;;;;;;;;;;;;22.59;56.92;98858.63;7305652;19;131192;-38
2023/05/16 00:17:19;;;;;;;;;;;;;;;22.58;56.80;98861.41;7308084;19;129154;-38
2023/05/16 00:19:46;;;;;;;;;;;;;;;22.59;56.21;98863.06;7311230;19;130036;-41
2023/05/16 00:22:11;;;;;;;;;;;;;;;22.58;56.19;98864.03;7310199;19;130352;-39
2023/05/16 00:24:37;;;;;;;;;;;;;;;22.60;56.24;98864.69;7309037;19;129927;-40
2023/05/16 00:27:02;;;;;;;;;;;;;;;22.58;56.20;98859.59;7315511;19;129031;-40
2023/05/16 00:29:28;;;;;;;;;;;;;;;22.56;56.37;98863.38;7308350;19;130627;-37
2023/05/16 00:31:53;;;;;;;;;;;;;;;22.58;56.27;98871.88;7310693;19;130928;-38
2023/05/16 00:34:20;;;;;;;;;;;;;;;22.59;56.09;98868.28;7305546;19;129460;-39
2023/05/16 00:36:45;;;;;;;;;;;;;;;22.60;56.85;98867.31;7308213;19;130812;-41
2023/05/16 00:39:10;;;;;;;;;;;;;;;22.58;56.41;98864.03;7307898;19;130614;-40
2023/05/16 00:41:35;;;;;;;;;;;;;;;22.58;56.50;98864.03;7299518;19;130174;-39
2023/05/16 00:44:01;;;;;;;;;;;;;;;22.59;56.85;98869.09;7307529;19;129167;-38
2023/05/16 00:46:26;;;;;;;;;;;;;;;22.50;56.62;98853.50;7303865;19;130677;-40
2023/05/16 00:48:51;;;;;;;;;;;;;;;22.58;56.11;98869.25;7314828;19;129047;-38
2023/05/16 00:51:16;;;;;;;;;;;;;;;22.57;56.27;98876.31;7305039;19;129888;-39
2023/05/16 00:53:42;;;;;;;;;;;;;;;22.58;56.88;98871.88;7306575;19;129627;-42
2023/05/16 00:56:08;;;;;;;;;;;;;;;22.55;56.14;98866.97;7307229;19;129437;-40
2023/05/16 00:58:33;;;;;;;;;;;;;;;22.58;56.67;98877.13;7310889;19;130015;-38
2023/05/16 01:01:00;;;;;;;;;;;;;;;22.59;56.33;98878.78;7311393;19;130125;-39
2023/05/16 01:03:26;;;;;;;;;;;;;;;22.57;56.59;98872.88;7307092;19;130268;-41
2023/05/16 01:05:52;;;;;;;;;;;;;;;22.58;56.55;98883.19;7307778;19;129546;-38
2023/05/16 01:08:18;;;;;;;;;;;;;;;22.57;56.53;98880.72;7306922;19;130483;-38
2023/05/16 01:10:49;;;;;;;;;;;;;;;22.45;56.80;98867.09;7308440;19;129741;-40
2023/05/16 01:13:23;;;;;;;;;;;;;;;22.56;56.91;98889.59;7303405;19;130096;-38
2023/05/16 01:16:08;;;;;;;;;;;;;;;22.58;56.50;98883.19;7307001;19;130324;-40
2023/05/16 01:18:34;;;;;;;;;;;;;;;22.59;56.42;98886.63;7313245;19;129424;-40
2023/05/16 01:21:02;;;;;;;;;;;;;;;22.60;56.23;98881.22;7311693;19;129589;-39
2023/05/16 01:23:30;;;;;;;;;;;;;;;22.57;56.17;98885.97;7312222;19;128730;-40
2023/05/16 01:26:14;;;;;;;;;;;;;;;22.59;56.85;98884.00;7313114;19;130095;-40
2023/05/16 01:28:40;;;;;;;;;;;;;;;22.58;56.26;98893.66;7313187;19;129700;-41
2023/05/16 01:31:05;;;;;;;;;;;;;;;22.60;56.77;98890.88;7310754;19;131906;-38
2023/05/16 01:33:30;;;;;;;;;;;;;;;22.49;56.26;98883.31;7313420;19;129451;-40
2023/05/16 01:36:18;;;;;;;;;;;;;;;22.55;56.46;98893.16;7311152;19;129256;-40
2023/05/16 01:38:49;;;;;;;;;;;;;;;22.57;56.19;98893.84;7312219;19;129628;-40
2023/05/16 01:41:20;;;;;;;;;;;;;;;22.59;56.75;98891.88;7311880;19;130370;-40
2023/05/16 01:43:47;;;;;;;;;;;;;;;22.46;56.70;98883.66;7309944;19;129530;-40
2023/05/16 01:46:19;;;;;;;;;;;;;;;22.57;56.26;98901.69;7313387;19;129450;-39
2023/05/16 01:49:04;;;;;;;;;;;;;;;22.59;56.91;98905.78;7310148;19;130724;-38
2023/05/16 01:51:32;;;;;;;;;;;;;;;22.58;56.82;98904.16;7308911;19;129518;-39
2023/05/16 01:54:00;;;;;;;;;;;;;;;22.49;56.60;98893.78;7312157;19;129655;-42
2023/05/16 01:56:27;;;;;;;;;;;;;;;22.49;56.84;98896.41;7309352;19;128991;-39
2023/05/16 01:58:54;;;;;;;;;;;;;;;22.50;56.84;98908.53;7311973;19;129861;-39
2023/05/16 02:01:19;;;;;;;;;;;;;;;22.59;56.21;98920.69;7310659;19;129524;-39
2023/05/16 02:03:44;;;;;;;;;;;;;;;22.57;56.44;98922.66;7310935;19;129414;-40
2023/05/16 02:06:09;;;;;;;;;;;;;;;22.58;56.44;98922.47;7310448;19;129165;-41
2023/05/16 02:08:35;;;;;;;;;;;;;;;22.56;56.22;98919.19;7309112;19;130266;-39
2023/05/16 02:11:00;;;;;;;;;;;;;;;22.58;56.94;98924.28;7310510;19;129355;-39
2023/05/16 02:13:25;;;;;;;;;;;;;;;22.58;56.71;98929.50;7310117;19;130930;-40
2023/05/16 02:15:51;;;;;;;;;;;;;;;22.57;56.83;98933.13;7309025;19;128910;-40
2023/05/16 02:18:17;;;;;;;;;;;;;;;22.58;56.20;98932.13;7308056;19;129344;-39
2023/05/16 02:20:42;;;;;;;;;;;;;;;22.57;56.58;98939.19;7309258;19;129363;-40
2023/05/16 02:23:08;;;;;;;;;;;;;;;22.55;56.92;98932.47;7309043;19;129461;-40
2023/05/16 02:25:33;;;;;;;;;;;;;;;22.59;56.45;98941.66;7311404;19;129641;-41
2023/05/16 02:27:58;;;;;;;;;;;;;;;22.57;56.28;98941.00;7313189;19;129512;-39
2023/05/16 02:30:23;;;;;;;;;;;;;;;22.58;56.27;98943.44;7311452;19;129826;-40
2023/05/16 02:32:49;;;;;;;;;;;;;;;22.58;56.34;98950.47;7309575;19;128924;-38
2023/05/16 02:35:14;;;;;;;;;;;;;;;22.57;56.64;98938.38;7309251;19;129281;-40
2023/05/16 02:37:40;;;;;;;;;;;;;;;22.59;56.49;98937.22;7310727;19;129366;-40
2023/05/16 02:40:06;;;;;;;;;;;;;;;22.58;56.78;98945.22;7308673;19;129644;-39
2023/05/16 02:42:32;;;;;;;;;;;;;;;22.55;56.79;98935.09;7307037;19;129130;-40
2023/05/16 02:44:57;;;;;;;;;;;;;;;22.60;56.27;98943.28;7312089;19;129120;-39
2023/05/16 02:47:22;;;;;;;;;;;;;;;22.58;56.54;98945.22;7312131;19;129360;-39
2023/05/16 02:49:47;;;;;;;;;;;;;;;22.60;56.57;98948.53;7310010;19;129400;-41
2023/05/16 02:52:13;;;;;;;;;;;;;;;22.57;56.80;98952.28;7308215;19;130814;-37
2023/05/16 02:54:38;;;;;;;;;;;;;;;22.58;56.62;98951.31;7310060;19;128882;-39
2023/05/16 02:57:03;;;;;;;;;;;;;;;22.56;56.24;98957.69;7312356;19;130159;-37
2023/05/16 02:59:28;;;;;;;;;;;;;;;22.57;56.62;98954.91;7311708;19;129064;-39
2023/05/16 03:01:54;;;;;;;;;;;;;;;22.48;56.97;98949.75;7308712;19;129189;-38
2023/05/16 03:04:19;;;;;;;;;;;;;;;22.57;56.66;98970.63;7311440;19;129706;-40
2023/05/16 03:06:45;;;;;;;;;;;;;;;22.46;56.17;98954.38;7310271;19;130929;-40
2023/05/16 03:09:10;;;;;;;;;;;;;;;22.54;56.42;98970.97;7309798;19;130457;-41
2023/05/16 03:11:36;;;;;;;;;;;;;;;22.57;56.88;98975.03;7309148;19;129356;-38
2023/05/16 03:14:01;;;;;;;;;;;;;;;22.57;56.97;98981.13;7309831;19;131248;-40
2023/05/16 03:16:27;;;;;;;;;;;;;;;22.59;56.57;98988.81;7305933;19;129965;-41
2023/05/16 03:18:52;;;;;;;;;;;;;;;22.57;56.17;98996.84;7309831;19;129946;-38
2023/05/16 03:21:17;;;;;;;;;;;;;;;22.58;56.24;99002.88;7307768;19;129010;-36
2023/05/16 03:23:43;;;;;;;;;;;;;;;22.56;56.75;98994.38;7308767;19;129433;-38
2023/05/16 03:26:08;;;;;;;;;;;;;;;22.57;56.92;99001.25;7311940;19;130260;-40
2023/05/16 03:28:33;;;;;;;;;;;;;;;22.57;56.05;99002.06;7310527;19;129495;-40
2023/05/16 03:30:59;;;;;;;;;;;;;;;22.59;56.51;99002.72;7310190;19;129056;-41
2023/05/16 03:33:24;;;;;;;;;;;;;;;22.57;56.68;99009.09;7307758;19;129556;-38
2023/05/16 03:35:50;;;;;;;;;;;;;;;22.47;56.67;98987.44;7308230;19;130694;-40
2023/05/16 03:38:16;;;;;;;;;;;;;;;22.56;56.94;99010.91;7308654;19;130275;-40
2023/05/16 03:40:41;;;;;;;;;;;;;;;22.57;56.44;99019.59;7308298;19;129088;-40
2023/05/16 03:43:06;;;;;;;;;;;;;;;22.56;56.15;99016.13;7310222;19;129070;-40
2023/05/16 03:45:31;;;;;;;;;;;;;;;22.58;56.17;99016.81;7309450;19;129859;-39
2023/05/16 03:47:57;;;;;;;;;;;;;;;22.59;56.17;99020.25;7309533;19;129451;-38
2023/05/16 03:50:22;;;;;;;;;;;;;;;22.60;56.04;99027.13;7308074;19;130184;-39
2023/05/16 03:52:47;;;;;;;;;;;;;;;22.59;56.95;99020.25;7312828;19;129495;-38
2023/05/16 03:55:14;;;;;;;;;;;;;;;22.58;56.57;99032.53;7315773;19;129576;-40
2023/05/16 03:57:40;;;;;;;;;;;;;;;22.56;56.63;99031.06;7314670;19;131328;-40
2023/05/16 04:00:09;;;;;;;;;;;;;;;22.57;56.81;99035.31;7313409;19;129240;-39
2023/05/16 04:02:35;;;;;;;;;;;;;;;22.55;56.54;99037.25;7315500;19;129286;-41
2023/05/16 04:05:00;;;;;;;;;;;;;;;22.59;56.70;99041.22;7315697;19;129318;-38
2023/05/16 04:07:26;;;;;;;;;;;;;;;22.58;56.33;99042.16;7313887;19;129664;-38
2023/05/16 04:09:51;;;;;;;;;;;;;;;22.58;56.58;99047.41;7316683;19;129528;-40
2023/05/16 04:12:16;;;;;;;;;;;;;;;22.55;56.80;99043.31;7311480;19;129038;-39
2023/05/16 04:14:42;;;;;;;;;;;;;;;22.57;56.21;99058.88;7314058;19;130145;-40
2023/05/16 04:17:07;;;;;;;;;;;;;;;22.57;56.63;99058.88;7313245;19;130365;-41
2023/05/16 04:19:32;;;;;;;;;;;;;;;22.59;56.76;99068.22;7315456;19;130354;-39
2023/05/16 04:21:57;;;;;;;;;;;;;;;22.60;56.53;99071.66;7312630;19;128999;-41
2023/05/16 04:24:25;;;;;;;;;;;;;;;22.57;56.25;99074.59;7312822;19;129112;-38
2023/05/16 04:26:50;;;;;;;;;;;;;;;22.58;56.84;99076.22;7315794;19;129495;-39
2023/05/16 04:29:16;;;;;;;;;;;;;;;22.57;56.59;99085.91;7316231;19;128837;-38
2023/05/16 04:31:41;;;;;;;;;;;;;;;22.52;56.55;99076.84;7313422;19;130270;-39
2023/05/16 04:34:06;;;;;;;;;;;;;;;22.45;56.78;99075.81;7313947;19;129556;-40
2023/05/16 04:36:31;;;;;;;;;;;;;;;22.56;56.75;99097.34;7313818;19;129796;-40
2023/05/16 04:38:56;;;;;;;;;;;;;;;22.56;56.62;99092.09;7312454;19;131165;-38
2023/05/16 04:41:22;;;;;;;;;;;;;;;22.58;56.05;99100.63;7314205;19;129003;-38
2023/05/16 04:43:48;;;;;;;;;;;;;;;22.59;56.61;99096.22;7314832;19;129388;-39
2023/05/16 04:46:14;;;;;;;;;;;;;;;22.59;56.84;99106.72;7312450;19;129997;-40
2023/05/16 04:48:39;;;;;;;;;;;;;;;22.58;56.78;99113.75;7314028;19;129444;-40
2023/05/16 04:51:05;;;;;;;;;;;;;;;22.58;56.79;99115.53;7311178;19;129006;-40
2023/05/16 04:53:30;;;;;;;;;;;;;;;22.56;56.44;99114.91;7312315;19;129675;-37
2023/05/16 04:55:55;;;;;;;;;;;;;;;22.58;56.79;99118.16;7312612;19;131461;-38
2023/05/16 04:58:22;;;;;;;;;;;;;;;22.46;56.24;99087.97;7312847;19;129534;-41
2023/05/16 05:00:48;;;;;;;;;;;;;;;22.58;56.85;99105.06;7313178;19;129064;-39
2023/05/16 05:03:13;;;;;;;;;;;;;;;22.58;56.39;99105.06;7308557;19;130928;-38
2023/05/16 05:05:38;;;;;;;;;;;;;;;22.60;56.36;99100.47;7312134;19;129333;-39
2023/05/16 05:08:03;;;;;;;;;;;;;;;22.61;56.88;99107.38;7315738;19;129601;-40
2023/05/16 05:10:30;;;;;;;;;;;;;;;22.63;56.28;99113.25;7313529;19;129679;-39
2023/05/16 05:12:55;;;;;;;;;;;;;;;22.60;55.99;99122.28;7311086;19;129453;-39
2023/05/16 05:15:20;;;;;;;;;;;;;;;22.59;56.36;99125.06;7307033;19;129718;-40
2023/05/16 05:17:45;;;;;;;;;;;;;;;22.58;56.78;99133.88;7313997;19;128934;-40
2023/05/16 05:20:11;;;;;;;;;;;;;;;22.59;56.75;99143.38;7307426;19;130462;-36
2023/05/16 05:22:36;;;;;;;;;;;;;;;22.58;56.46;99139.09;7308347;19;130521;-40
2023/05/16 05:25:02;;;;;;;;;;;;;;;22.48;56.09;99117.41;7304086;19;129765;-40
2023/05/16 05:27:27;;;;;;;;;;;;;;;22.58;56.18;99139.09;7305018;19;129971;-38
2023/05/16 05:29:52;;;;;;;;;;;;;;;22.57;56.94;99146.16;7309574;19;131089;-40
2023/05/16 05:32:18;;;;;;;;;;;;;;;22.58;56.12;99145.19;7312481;19;130123;-39
2023/05/16 05:34:43;;;;;;;;;;;;;;;22.58;55.97;99146.97;7310408;19;129379;-39
2023/05/16 05:37:08;;;;;;;;;;;;;;;22.57;56.21;99155.81;7308669;19;129850;-41
2023/05/16 05:39:33;;;;;;;;;;;;;;;22.57;56.22;99158.44;7308333;19;129943;-40
2023/05/16 05:42:02;;;;;;;;;;;;;;;22.56;56.53;99154.19;7307973;19;129630;-39
2023/05/16 05:44:27;;;;;;;;;;;;;;;22.55;56.69;99161.22;7310093;19;130514;-40
2023/05/16 05:46:53;;;;;;;;;;;;;;;22.58;56.38;99167.94;7310966;19;129418;-38
2023/05/16 05:49:18;;;;;;;;;;;;;;;22.57;56.31;99163.69;7312548;19;128895;-38
2023/05/16 05:51:43;;;;;;;;;;;;;;;22.47;56.36;99152.47;7308957;19;129964;-40
2023/05/16 05:54:08;;;;;;;;;;;;;;;22.56;56.16;99169.91;7312694;19;129579;-39
2023/05/16 05:56:34;;;;;;;;;;;;;;;22.43;56.21;99154.56;7312661;19;129806;-40
2023/05/16 05:58:59;;;;;;;;;;;;;;;22.53;56.54;99178.06;7313085;19;129072;-40
2023/05/16 06:01:26;;;;;;;;;;;;;;;22.47;56.22;99170.78;7310715;19;131018;-39
2023/05/16 06:03:51;;;;;;;;;;;;;;;22.58;56.61;99186.28;7312489;19;129578;-39
2023/05/16 06:06:16;;;;;;;;;;;;;;;22.58;56.27;99187.09;7312354;19;129418;-39
2023/05/16 06:08:42;;;;;;;;;;;;;;;22.57;56.10;99184.63;7309510;19;130980;-39
2023/05/16 06:11:07;;;;;;;;;;;;;;;22.58;56.27;99191.50;7312313;19;129098;-39
2023/05/16 06:13:33;;;;;;;;;;;;;;;22.56;56.74;99198.72;7313514;19;129271;-39
2023/05/16 06:15:58;;;;;;;;;;;;;;;22.55;56.34;99197.91;7308864;19;128985;-39
2023/05/16 06:18:23;;;;;;;;;;;;;;;22.55;56.23;99208.38;7312479;19;129112;-40
2023/05/16 06:20:49;;;;;;;;;;;;;;;22.58;56.38;99207.22;7310728;19;129528;-41
2023/05/16 06:23:14;;;;;;;;;;;;;;;22.57;56.36;99210.84;7310981;19;130403;-40
2023/05/16 06:25:40;;;;;;;;;;;;;;;22.58;56.52;99215.09;7312904;19;129207;-36
2023/05/16 06:28:05;;;;;;;;;;;;;;;22.55;56.06;99203.13;7311369;19;129482;-38
2023/05/16 06:30:31;;;;;;;;;;;;;;;22.49;56.88;99202.91;7311628;19;129100;-40
2023/05/16 06:32:56;;;;;;;;;;;;;;;22.55;56.24;99204.94;7313133;19;129604;-39
2023/05/16 06:35:21;;;;;;;;;;;;;;;22.46;56.11;99190.13;7308867;19;131862;-39
2023/05/16 06:37:47;;;;;;;;;;;;;;;22.54;56.73;99217.22;7309109;19;129491;-39
2023/05/16 06:40:12;;;;;;;;;;;;;;;22.56;56.03;99220.50;7304803;19;132001;-39
2023/05/16 06:42:37;;;;;;;;;;;;;;;22.56;56.75;99224.94;7311185;19;130312;-39
2023/05/16 06:45:03;;;;;;;;;;;;;;;22.45;56.34;99207.63;7307714;19;129529;-40
2023/05/16 06:47:28;;;;;;;;;;;;;;;22.54;56.16;99222.47;7305764;19;129590;-40
2023/05/16 06:49:53;;;;;;;;;;;;;;;22.55;56.83;99225.88;7305283;19;129308;-41
2023/05/16 06:52:19;;;;;;;;;;;;;;;22.55;56.81;99223.25;7309020;19;129179;-38
2023/05/16 06:54:44;;;;;;;;;;;;;;;22.56;56.87;99235.41;7310110;19;129021;-38
2023/05/16 06:57:09;;;;;;;;;;;;;;;22.54;56.63;99230.31;7312151;19;129087;-39
2023/05/16 06:59:35;;;;;;;;;;;;;;;22.54;56.73;99235.56;7308445;19;129474;-40
2023/05/16 07:02:01;;;;;;;;;;;;;;;22.55;56.57;99233.75;7309569;19;129740;-40
2023/05/16 07:04:26;;;;;;;;;;;;;;;22.56;56.44;99230.16;7311916;19;129667;-40
2023/05/16 07:06:52;;;;;;;;;;;;;;;22.59;55.96;99235.09;7309454;19;130134;-40
2023/05/16 07:09:17;;;;;;;;;;;;;;;22.57;56.12;99237.88;7311695;19;129549;-38
2023/05/16 07:11:42;;;;;;;;;;;;;;;22.54;56.30;99226.88;7301985;19;129452;-40
2023/05/16 07:14:08;;;;;;;;;;;;;;;22.45;56.41;99217.28;7307427;19;129896;-39
2023/05/16 07:16:34;;;;;;;;;;;;;;;22.56;56.56;99224.94;7307679;19;129578;-40
2023/05/16 07:18:59;;;;;;;;;;;;;;;22.54;56.80;99229.50;7312592;19;130569;-39
2023/05/16 07:21:24;;;;;;;;;;;;;;;22.56;56.50;99222.31;7309542;19;129220;-41
2023/05/16 07:23:49;;;;;;;;;;;;;;;22.54;56.55;99226.88;7311943;19;129563;-39
2023/05/16 07:26:15;;;;;;;;;;;;;;;22.55;56.55;99223.25;7309369;19;130347;-40
2023/05/16 07:28:40;;;;;;;;;;;;;;;22.56;56.85;99230.16;7310055;19;129173;-39
2023/05/16 07:31:07;;;;;;;;;;;;;;;22.51;57.08;99221.91;7308838;19;130711;-39
2023/05/16 07:33:32;;;;;;;;;;;;;;;22.55;56.81;99233.75;7310618;19;128836;-40
2023/05/16 07:35:57;;;;;;;;;;;;;;;22.51;56.34;99238.44;7309104;19;129483;-39
2023/05/16 07:38:23;;;;;;;;;;;;;;;22.53;56.48;99240.94;7310691;19;129545;-40
2023/05/16 07:40:48;;;;;;;;;;;;;;;22.53;56.81;99246.16;7309086;19;130124;-39
2023/05/16 07:43:13;;;;;;;;;;;;;;;22.54;56.51;99247.84;7310153;19;130208;-39
2023/05/16 07:45:39;;;;;;;;;;;;;;;22.54;56.38;99247.84;7311611;19;128873;-39
2023/05/16 07:48:04;;;;;;;;;;;;;;;22.53;56.58;99246.16;7310112;19;130310;-39
2023/05/16 07:50:29;;;;;;;;;;;;;;;22.52;56.72;99255.00;7310819;19;129939;-40
2023/05/16 07:52:55;;;;;;;;;;;;;;;22.52;56.40;99253.19;7310505;19;130129;-38
2023/05/16 07:55:21;;;;;;;;;;;;;;;22.54;56.53;99253.06;7310284;19;129016;-40
2023/05/16 07:57:46;;;;;;;;;;;;;;;22.55;56.79;99245.06;7309930;19;130860;-39
2023/05/16 08:00:12;;;;;;;;;;;;;;;22.53;56.47;99251.41;7309022;19;130160;-40
2023/05/16 08:02:38;;;;;;;;;;;;;;;22.49;56.70;99250.88;7311238;19;129212;-40
2023/05/16 08:05:03;;;;;;;;;;;;;;;22.54;56.95;99258.31;7311431;19;129650;-39
2023/05/16 08:07:28;;;;;;;;;;;;;;;22.55;56.73;99273.03;7309517;19;130034;-40
2023/05/16 08:09:53;;;;;;;;;;;;;;;22.53;56.82;99262.72;7308605;19;129747;-39
2023/05/16 08:12:19;;;;;;;;;;;;;;;22.55;56.05;99270.44;7308191;19;129952;-40
2023/05/16 08:14:44;;;;;;;;;;;;;;;22.52;56.79;99271.53;7308048;19;129586;-39
2023/05/16 08:17:09;;;;;;;;;;;;;;;22.54;56.88;99272.25;7306937;19;129345;-39
2023/05/16 08:19:35;;;;;;;;;;;;;;;22.53;56.07;99275.00;7308289;19;129767;-40
2023/05/16 08:22:00;;;;;;;;;;;;;;;22.52;56.22;99281.19;7309046;19;128841;-40
2023/05/16 08:24:25;;;;;;;;;;;;;;;22.52;56.47;99289.03;7308610;19;129287;-39
2023/05/16 08:26:50;;;;;;;;;;;;;;;22.55;56.15;99296.63;7309094;19;129340;-39
2023/05/16 08:29:16;;;;;;;;;;;;;;;22.50;56.67;99298.84;7307820;19;129649;-41
2023/05/16 08:31:41;;;;;;;;;;;;;;;22.53;56.05;99304.63;7307556;19;128984;-38
2023/05/16 08:34:08;;;;;;;;;;;;;;;22.53;56.75;99295.94;7308911;19;128969;-38
2023/05/16 08:36:34;;;;;;;;;;;;;;;22.52;56.57;99302.16;7306245;19;129416;-39
2023/05/16 08:38:59;;;;;;;;;;;;;;;22.41;56.65;99292.72;7311878;19;129461;-40
2023/05/16 08:41:25;;;;;;;;;;;;;;;22.54;56.21;99318.56;7312896;19;128859;-40
2023/05/16 08:43:50;;;;;;;;;;;;;;;22.55;56.32;99318.41;7314551;19;129149;-40
2023/05/16 08:46:20;;;;;;;;;;;;;;;22.56;56.23;99314.00;7315933;19;129356;-39
2023/05/16 08:48:46;;;;;;;;;;;;;;;22.54;56.86;99321.19;7316681;19;130085;-39
2023/05/16 08:51:11;;;;;;;;;;;;;;;22.53;56.54;99322.16;7315557;19;128982;-39
2023/05/16 08:53:41;;;;;;;;;;;;;;;22.52;56.10;99325.72;7315407;19;129415;-37
2023/05/16 08:56:06;;;;;;;;;;;;;;;22.50;56.85;99325.88;7313484;19;129755;-41
2023/05/16 08:58:31;;;;;;;;;;;;;;;22.52;56.90;99336.19;7313935;19;129225;-39
2023/05/16 09:00:57;;;;;;;;;;;;;;;22.53;56.17;99330.00;7314948;19;129443;-37
2023/05/16 09:03:23;;;;;;;;;;;;;;;22.53;56.17;99330.00;7315382;19;129438;-40
2023/05/16 09:05:49;;;;;;;;;;;;;;;22.53;56.79;99340.50;7315408;19;131570;-39
2023/05/16 09:08:15;;;;;;;;;;;;;;;22.51;56.52;99335.38;7311035;19;130293;-40
2023/05/16 09:10:40;;;;;;;;;;;;;;;22.44;56.14;99325.66;7313463;19;130430;-39
2023/05/16 09:13:05;;;;;;;;;;;;;;;22.49;56.22;99326.88;7312037;19;129074;-39
2023/05/16 09:15:31;;;;;;;;;;;;;;;22.51;56.79;99338.00;7313919;19;129353;-40
2023/05/16 09:17:59;;;;;;;;;;;;;;;22.51;56.91;99340.59;7314606;19;129305;-40
2023/05/16 09:20:25;;;;;;;;;;;;;;;22.53;56.50;99335.25;7315182;19;128856;-41
2023/05/16 09:22:51;;;;;;;;;;;;;;;22.52;56.22;99342.28;7313956;19;129205;-38
2023/05/16 09:25:17;;;;;;;;;;;;;;;22.54;56.34;99335.13;7313720;19;129073;-40
2023/05/16 09:27:42;;;;;;;;;;;;;;;22.42;56.33;99320.56;7314299;19;129255;-39
2023/05/16 09:30:07;;;;;;;;;;;;;;;22.39;56.81;99330.53;7313252;19;128929;-41
2023/05/16 09:32:33;;;;;;;;;;;;;;;22.54;56.86;99355.25;7313968;19;128997;-38
2023/05/16 09:34:58;;;;;;;;;;;;;;;22.51;56.77;99358.94;7312292;19;129548;-39
2023/05/16 09:37:24;;;;;;;;;;;;;;;22.47;56.44;99362.88;7311338;19;129587;-40
2023/05/16 09:39:50;;;;;;;;;;;;;;;22.50;56.66;99366.97;7311642;19;129047;-40
2023/05/16 09:42:17;;;;;;;;;;;;;;;22.48;56.72;99376.75;7312164;19;129282;-38
2023/05/16 09:44:46;;;;;;;;;;;;;;;22.38;56.52;99348.03;7313631;19;129496;-39
2023/05/16 09:47:13;;;;;;;;;;;;;;;22.41;56.76;99352.16;7313472;19;129347;-40
2023/05/16 09:49:38;;;;;;;;;;;;;;;22.52;56.47;99375.50;7313658;19;128892;-40
2023/05/16 09:52:04;;;;;;;;;;;;;;;22.49;56.77;99368.78;7311903;19;129552;-40
2023/05/16 09:54:30;;;;;;;;;;;;;;;22.51;56.73;99374.66;7311416;19;129271;-40
2023/05/16 09:56:56;;;;;;;;;;;;;;;22.49;56.61;99375.81;7311377;19;131939;-40
2023/05/16 09:59:21;;;;;;;;;;;;;;;22.36;56.79;99370.13;7313830;19;128978;-40
2023/05/16 10:01:47;;;;;;;;;;;;;;;22.50;56.27;99388.75;7311480;19;129192;-39
2023/05/16 10:04:14;;;;;;;;;;;;;;;22.51;56.04;99392.22;7312676;19;129187;-39
2023/05/16 10:06:41;;;;;;;;;;;;;;;22.51;56.56;99382.53;7310651;19;129940;-37
2023/05/16 10:09:07;;;;;;;;;;;;;;;22.51;56.68;99382.53;7313173;19;128962;-39
2023/05/16 10:11:33;;;;;;;;;;;;;;;22.51;56.29;99389.59;7311541;19;129106;-40
2023/05/16 10:13:59;;;;;;;;;;;;;;;22.51;56.76;99384.34;7313218;19;129773;-39
2023/05/16 10:16:24;;;;;;;;;;;;;;;22.49;56.24;99386.28;7311774;19;129826;-41
2023/05/16 10:18:50;;;;;;;;;;;;;;;22.43;56.83;99381.66;7313851;19;128836;-39
2023/05/16 10:21:17;;;;;;;;;;;;;;;22.52;56.46;99385.97;7311369;19;128845;-40
2023/05/16 10:23:42;;;;;;;;;;;;;;;22.51;56.33;99381.72;7312618;19;129572;-40
2023/05/16 10:26:08;;;;;;;;;;;;;;;22.51;56.56;99381.72;7312885;19;129893;-39
2023/05/16 10:28:34;;;;;;;;;;;;;;;22.51;56.57;99384.34;7313577;19;129467;-41
2023/05/16 10:31:01;;;;;;;;;;;;;;;22.49;56.43;99384.50;7312253;19;128957;-41
2023/05/16 10:33:27;;;;;;;;;;;;;;;22.51;56.92;99389.59;7311632;19;129598;-40
2023/05/16 10:35:52;;;;;;;;;;;;;;;22.48;56.21;99384.63;7312595;19;129687;-40
2023/05/16 10:38:18;;;;;;;;;;;;;;;22.50;56.46;99377.44;7311949;19;129136;-38
2023/05/16 10:40:44;;;;;;;;;;;;;;;22.50;56.44;99380.06;7312248;19;129778;-38
2023/05/16 10:43:09;;;;;;;;;;;;;;;22.47;56.47;99378.56;7311437;19;129402;-39
2023/05/16 10:45:39;;;;;;;;;;;;;;;22.48;56.89;99374.97;7313289;19;129458;-39
2023/05/16 10:48:05;;;;;;;;;;;;;;;22.49;56.20;99378.44;7313589;19;129414;-40
2023/05/16 10:50:42;;;;;;;;;;;;;;;22.50;56.66;99385.31;7311959;19;129212;-38
2023/05/16 10:53:10;;;;;;;;;;;;;;;22.50;56.61;99386.13;7312038;19;130242;-39
2023/05/16 10:55:35;;;;;;;;;;;;;;;22.49;56.43;99366.16;7311233;19;129444;-38
2023/05/16 10:58:01;;;;;;;;;;;;;;;22.48;56.23;99379.38;7313220;19;129212;-37
2023/05/16 11:00:29;;;;;;;;;;;;;;;22.40;56.84;99355.75;7312176;19;129210;-37
2023/05/16 11:03:03;;;;;;;;;;;;;;;22.50;56.41;99382.69;7310318;19;129110;-41
2023/05/16 11:05:28;;;;;;;;;;;;;;;22.50;56.57;99377.44;7311610;19;129585;-38
2023/05/16 11:08:04;;;;;;;;;;;;;;;22.50;56.40;99377.44;7312125;19;129252;-40
2023/05/16 11:10:30;;;;;;;;;;;;;;;22.49;56.82;99381.03;7310762;19;128884;-40
2023/05/16 11:13:01;;;;;;;;;;;;;;;22.47;56.97;99377.75;7310390;19;129621;-39
2023/05/16 11:15:27;;;;;;;;;;;;;;;22.36;56.64;99359.66;7312160;19;129238;-37
2023/05/16 11:18:13;;;;;;;;;;;;;;;22.48;56.96;99374.13;7312713;19;128773;-41
2023/05/16 11:20:39;;;;;;;;;;;;;;;22.51;56.60;99373.88;7311894;19;129874;-39
2023/05/16 11:23:14;;;;;;;;;;;;;;;22.52;56.56;99383.34;7311129;19;130492;-38
2023/05/16 11:25:40;;;;;;;;;;;;;;;22.44;56.59;99364.97;7311354;19;129707;-37
2023/05/16 11:28:07;;;;;;;;;;;;;;;22.51;56.24;99374.66;7312186;19;129425;-40
2023/05/16 11:30:32;;;;;;;;;;;;;;;22.55;56.21;99380.47;7310137;19;129706;-38
2023/05/16 11:32:57;;;;;;;;;;;;;;;22.55;56.39;99377.84;7309991;19;129605;-38
2023/05/16 11:35:22;;;;;;;;;;;;;;;22.55;56.61;99375.22;7311560;19;129199;-39
2023/05/16 11:37:49;;;;;;;;;;;;;;;22.45;56.11;99353.50;7307705;19;129020;-38
2023/05/16 11:40:15;;;;;;;;;;;;;;;22.51;56.39;99368.63;7310485;19;129118;-38
2023/05/16 11:42:45;;;;;;;;;;;;;;;22.50;56.40;99359.09;7310714;19;129615;-40
2023/05/16 11:45:11;;;;;;;;;;;;;;;22.49;57.00;99357.47;7312037;19;129754;-39
2023/05/16 11:47:37;;;;;;;;;;;;;;;22.51;56.59;99352.91;7310539;19;129036;-39
2023/05/16 11:50:08;;;;;;;;;;;;;;;22.54;56.43;99347.38;7311761;19;129369;-39
2023/05/16 11:52:34;;;;;;;;;;;;;;;22.53;56.48;99356.22;7310076;19;129688;-41
2023/05/16 11:55:00;;;;;;;;;;;;;;;22.52;56.80;99359.78;7309343;19;129616;-40
2023/05/16 11:57:26;;;;;;;;;;;;;;;22.49;56.72;99354.84;7307296;19;129050;-41
2023/05/16 11:59:52;;;;;;;;;;;;;;;22.51;56.83;99352.91;7310956;19;129542;-37
2023/05/16 12:02:17;;;;;;;;;;;;;;;22.48;56.76;99358.44;7307962;19;130033;-36
2023/05/16 12:04:45;;;;;;;;;;;;;;;22.48;56.84;99364.50;7309590;19;130109;-38
2023/05/16 12:07:10;;;;;;;;;;;;;;;22.51;56.52;99363.38;7310073;19;129009;-41
2023/05/16 12:09:35;;;;;;;;;;;;;;;22.48;56.63;99358.44;7304696;19;129173;-39
2023/05/16 12:12:03;;;;;;;;;;;;;;;22.41;56.67;99346.94;7306384;19;130338;-37
2023/05/16 12:14:28;;;;;;;;;;;;;;;22.49;56.45;99353.06;7316246;19;129595;-39
2023/05/16 12:16:54;;;;;;;;;;;;;;;22.48;56.42;99359.25;7316595;19;129707;-38
2023/05/16 12:19:20;;;;;;;;;;;;;;;22.45;56.37;99356.94;7318863;19;129014;-39
2023/05/16 12:21:45;;;;;;;;;;;;;;;22.48;56.96;99353.19;7316395;19;129877;-40
2023/05/16 12:24:11;;;;;;;;;;;;;;;22.35;56.66;99332.63;7312567;19;129828;-39
2023/05/16 12:26:38;;;;;;;;;;;;;;;22.48;56.54;99358.44;7317049;19;128916;-40
2023/05/16 12:29:04;;;;;;;;;;;;;;;22.49;56.64;99357.47;7316892;19;128875;-40